»·PEaware :: N8CF KAMA-KABQ

N8CF :: KAMA-KABQ

FLIGHT INFORMATION

Flight Status: Arrived
Operator: Privately registered:
United States
More flights under this callsign
Pilot: Austin M. (5128)
Aircraft: BEECH AIRCRAFT BEECH AIRLINER
(B190)
More flights by this aircraft type
Origin: KAMA Amarillo Intl
United States
Destination: KABQ Albuquerque Intl Sunport
United States
More flights between these airports :: More routes between these airports
Route: PNH V12 OTO V60 CYOTE
File this flight plan on PilotEdge
Remarks:
Altitude:
(Current/Filed)
220ft
Speed:
(Current/Filed)
220kts
Departed: 03-Aug-17 07:31 PM
Arrived: 03-Aug-17 08:49 PM
Distance/Time
Traveled:
241nm/1:18
Distance/Time
To Go:
Arrived

Flight Plot

Page will automatically refresh every two minutes.

Flight plan parsing failed; only flown route is shown


Map Options




Map Legend


Flown Route
Filed Route
Departure Airport
Arrival Airport
Navaid (VOR, NDB)
Fix

Horizontal Profiles

Position Reports

Time Latitude Longitude Heading Altitude Ground
Speed
03-Aug-17 19:18 35.220057 -101.706247 309 3607ft 0kts
03-Aug-17 19:19 35.220057 -101.706247 309 3607ft 0kts
03-Aug-17 19:20 35.220057 -101.706247 309 3607ft 0kts
03-Aug-17 19:21 35.220057 -101.706247 309 3607ft 0kts
03-Aug-17 19:22 35.220057 -101.706247 309 3607ft 0kts
03-Aug-17 19:23 35.220057 -101.706247 309 3607ft 0kts
03-Aug-17 19:24 35.220057 -101.706247 309 3607ft 0kts
03-Aug-17 19:25 35.220057 -101.706247 309 3607ft 0kts
03-Aug-17 19:26 35.220057 -101.706247 309 3607ft 0kts
03-Aug-17 19:27 35.220057 -101.706247 309 3607ft 0kts
03-Aug-17 19:28 35.220057 -101.706247 309 3607ft 0kts
03-Aug-17 19:29 35.221096 -101.707231 14 3607ft 10kts
03-Aug-17 19:30 35.225873 -101.701351 45 3604ft 26kts
03-Aug-17 19:31 35.229533 -101.700080 311 3601ft 0kts
03-Aug-17 19:32 35.229533 -101.700080 311 3601ft 0kts
03-Aug-17 19:33 35.229533 -101.700080 311 3601ft 0kts
03-Aug-17 19:34 35.223698 -101.709234 225 3612ft 143kts
03-Aug-17 19:35 35.188746 -101.756095 225 5423ft 208kts
03-Aug-17 19:36 35.156232 -101.809358 275 7362ft 189kts
03-Aug-17 19:37 35.170586 -101.866925 285 9338ft 170kts
03-Aug-17 19:38 35.185253 -101.920016 286 11009ft 163kts
03-Aug-17 19:39 35.202893 -101.968651 305 12571ft 155kts
03-Aug-17 19:40 35.231488 -102.009833 306 13684ft 166kts
03-Aug-17 19:41 35.239415 -102.062915 264 14695ft 164kts
03-Aug-17 19:42 35.237402 -102.118589 264 15692ft 164kts
03-Aug-17 19:43 35.235773 -102.173868 264 16696ft 160kts
03-Aug-17 19:44 35.234084 -102.226811 264 17684ft 151kts
03-Aug-17 19:45 35.232437 -102.276743 264 18514ft 146kts
03-Aug-17 19:46 35.230723 -102.327377 264 19127ft 151kts
03-Aug-17 19:47 35.228922 -102.379700 264 19657ft 162kts
03-Aug-17 19:48 35.226990 -102.436010 264 20543ft 164kts
03-Aug-17 19:49 35.225171 -102.488505 264 21496ft 156kts
03-Aug-17 19:50 35.223407 -102.538491 265 22229ft 158kts
03-Aug-17 19:51 35.221273 -102.597524 265 22240ft 193kts
03-Aug-17 19:52 35.218817 -102.665683 265 22235ft 214kts
03-Aug-17 19:53 35.216219 -102.736653 265 22234ft 225kts
03-Aug-17 19:54 35.213326 -102.813975 265 22255ft 230kts
03-Aug-17 19:55 35.210323 -102.892698 265 22278ft 233kts
03-Aug-17 19:56 35.207255 -102.972059 265 22300ft 235kts
03-Aug-17 19:57 35.204199 -103.052127 264 22300ft 237kts
03-Aug-17 19:58 35.201095 -103.132336 263 22306ft 241kts
03-Aug-17 19:59 35.197934 -103.214718 262 22306ft 246kts
03-Aug-17 20:00 35.194777 -103.290346 262 22305ft 249kts
03-Aug-17 20:01 35.191978 -103.357265 262 22297ft 251kts
03-Aug-17 20:02 35.188452 -103.440017 262 22295ft 251kts
03-Aug-17 20:03 35.185382 -103.511643 262 22295ft 252kts
03-Aug-17 20:04 35.182607 -103.575395 262 22295ft 252kts
03-Aug-17 20:05 35.179779 -103.646359 262 22294ft 252kts
03-Aug-17 20:06 35.176724 -103.726009 262 22294ft 252kts
03-Aug-17 20:07 35.174247 -103.789572 262 22294ft 252kts
03-Aug-17 20:08 35.171654 -103.854805 262 22294ft 252kts
03-Aug-17 20:09 35.169244 -103.914546 262 22293ft 252kts
03-Aug-17 20:10 35.166552 -103.980584 262 22293ft 252kts
03-Aug-17 20:11 35.163647 -104.051184 262 22293ft 252kts
03-Aug-17 20:12 35.160800 -104.120353 262 22296ft 252kts
03-Aug-17 20:13 35.157478 -104.205040 262 22296ft 253kts
03-Aug-17 20:14 35.153823 -104.290688 262 22296ft 253kts
03-Aug-17 20:15 35.150073 -104.376578 262 22296ft 253kts
03-Aug-17 20:16 35.146276 -104.462016 262 22315ft 252kts
03-Aug-17 20:17 35.142424 -104.547346 262 22351ft 252kts
03-Aug-17 20:18 35.138517 -104.632459 262 22387ft 251kts
03-Aug-17 20:19 35.134536 -104.717513 262 22395ft 252kts
03-Aug-17 20:20 35.130507 -104.802401 262 22394ft 252kts
03-Aug-17 20:21 35.126397 -104.887503 262 22393ft 252kts
03-Aug-17 20:22 35.121344 -104.973452 272 22407ft 259kts
03-Aug-17 20:23 35.117659 -105.062633 272 22395ft 264kts
03-Aug-17 20:24 35.113543 -105.152400 271 21288ft 272kts
03-Aug-17 20:25 35.108915 -105.245568 270 20100ft 277kts
03-Aug-17 20:26 35.104051 -105.339782 270 18910ft 279kts
03-Aug-17 20:27 35.099139 -105.433301 270 17689ft 276kts
03-Aug-17 20:28 35.094132 -105.527423 269 16524ft 276kts
03-Aug-17 20:29 35.089113 -105.620405 269 15661ft 275kts
03-Aug-17 20:30 35.084095 -105.711945 269 14651ft 269kts
03-Aug-17 20:31 35.079043 -105.802887 269 13446ft 266kts
03-Aug-17 20:32 35.073990 -105.892551 268 13159ft 261kts
03-Aug-17 20:33 35.060845 -105.978520 255 13052ft 267kts
03-Aug-17 20:34 35.032264 -106.062539 246 13124ft 270kts
03-Aug-17 20:35 35.000915 -106.140748 246 12988ft 250kts
03-Aug-17 20:36 34.971093 -106.214686 246 12995ft 247kts
03-Aug-17 20:37 34.959745 -106.293990 267 12996ft 244kts
03-Aug-17 20:38 34.955052 -106.375505 267 12993ft 245kts
03-Aug-17 20:39 34.950567 -106.456702 267 12992ft 245kts
03-Aug-17 20:40 34.946324 -106.538034 267 12087ft 250kts
03-Aug-17 20:41 34.942165 -106.621196 267 11094ft 245kts
03-Aug-17 20:42 34.937937 -106.701736 267 10101ft 239kts
03-Aug-17 20:43 34.933451 -106.781638 267 9107ft 237kts
03-Aug-17 20:44 34.928712 -106.861009 268 8171ft 234kts
03-Aug-17 20:45 34.970060 -106.899640 347 8026ft 206kts
03-Aug-17 20:46 35.023414 -106.905184 39 8051ft 197kts
03-Aug-17 20:47 35.045025 -106.842784 84 7712ft 217kts
03-Aug-17 20:48 35.045266 -106.782860 86 7126ft 206kts
03-Aug-17 20:49 35.044864 -106.717807 85 6883ft 145kts
03-Aug-17 20:50 35.044681 -106.671156 84 6178ft 132kts
03-Aug-17 20:51 35.044397 -106.629409 85 5532ft 128kts
03-Aug-17 20:52 35.044384 -106.606136 91 5317ft 22kts
03-Aug-17 20:53 35.043391 -106.602673 237 5318ft 8kts
03-Aug-17 20:54 35.042430 -106.607448 271 5317ft 35kts
03-Aug-17 20:55 35.042811 -106.609869 300 5317ft 32kts

Navigation Log

Ident Type
Flight plan parsing failed, navigation log unavailable